地図

経路データ

SID SEASON NUMBER BASIN SUBBASIN NAME ISO_TIME NATURE LAT LON WMO_WIND WMO_PRES WMO_AGENCY TRACK_TYPE DIST2LAND LANDFALL IFLAG USA_AGENCY USA_ATCF_ID USA_LAT USA_LON USA_RECORD USA_STATUS USA_WIND USA_PRES USA_SSHS USA_R34_NE USA_R34_SE USA_R34_SW USA_R34_NW USA_R50_NE USA_R50_SE USA_R50_SW USA_R50_NW USA_R64_NE USA_R64_SE USA_R64_SW USA_R64_NW USA_POCI USA_ROCI USA_RMW USA_EYE TOKYO_LAT TOKYO_LON TOKYO_GRADE TOKYO_WIND TOKYO_PRES TOKYO_R50_DIR TOKYO_R50_LONG TOKYO_R50_SHORT TOKYO_R30_DIR TOKYO_R30_LONG TOKYO_R30_SHORT TOKYO_LAND CMA_LAT CMA_LON CMA_CAT CMA_WIND CMA_PRES HKO_LAT HKO_LON HKO_CAT HKO_WIND HKO_PRES NEWDELHI_LAT NEWDELHI_LON NEWDELHI_GRADE NEWDELHI_WIND NEWDELHI_PRES NEWDELHI_CI NEWDELHI_DP NEWDELHI_POCI REUNION_LAT REUNION_LON REUNION_TYPE REUNION_WIND REUNION_PRES REUNION_TNUM REUNION_CI REUNION_RMW REUNION_R34_NE REUNION_R34_SE REUNION_R34_SW REUNION_R34_NW REUNION_R50_NE REUNION_R50_SE REUNION_R50_SW REUNION_R50_NW REUNION_R64_NE REUNION_R64_SE REUNION_R64_SW REUNION_R64_NW BOM_LAT BOM_LON BOM_TYPE BOM_WIND BOM_PRES BOM_TNUM BOM_CI BOM_RMW BOM_R34_NE BOM_R34_SE BOM_R34_SW BOM_R34_NW BOM_R50_NE BOM_R50_SE BOM_R50_SW BOM_R50_NW BOM_R64_NE BOM_R64_SE BOM_R64_SW BOM_R64_NW BOM_ROCI BOM_POCI BOM_EYE BOM_POS_METHOD BOM_PRES_METHOD NADI_LAT NADI_LON NADI_CAT NADI_WIND NADI_PRES WELLINGTON_LAT WELLINGTON_LON WELLINGTON_WIND WELLINGTON_PRES DS824_LAT DS824_LON DS824_STAGE DS824_WIND DS824_PRES TD9636_LAT TD9636_LON TD9636_STAGE TD9636_WIND TD9636_PRES TD9635_LAT TD9635_LON TD9635_WIND TD9635_PRES TD9635_ROCI NEUMANN_LAT NEUMANN_LON NEUMANN_CLASS NEUMANN_WIND NEUMANN_PRES MLC_LAT MLC_LON MLC_CLASS MLC_WIND MLC_PRES USA_GUST BOM_GUST BOM_GUST_PER REUNION_GUST REUNION_GUST_PER USA_SEAHGT USA_SEARAD_NE USA_SEARAD_SE USA_SEARAD_SW USA_SEARAD_NW STORM_SPEED STORM_DIR
1941038N07150 1941 9 WP MM NOT_NAMED 1941-02-07 00:00:00 NR 6.80000 149.900 main 1035 1010 __________O___ -1 6.80000 149.900 4 10 259
1941038N07150 1941 9 WP MM NOT_NAMED 1941-02-07 03:00:00 NR 6.69714 149.389 main 1010 989 __________P___ -1 6.69714 149.389 4 10 260
1941038N07150 1941 9 WP MM NOT_NAMED 1941-02-07 06:00:00 NR 6.61522 148.872 main 989 981 __________P___ -1 6.61522 148.872 4 10 263
1941038N07150 1941 9 WP MM NOT_NAMED 1941-02-07 09:00:00 NR 6.57570 148.344 main 980 975 __________P___ -1 6.57570 148.344 4 11 269
1941038N07150 1941 9 WP MM NOT_NAMED 1941-02-07 12:00:00 NR 6.60000 147.800 main 975 975 __________O___ -1 6.60000 147.800 4 11 276
1941038N07150 1941 9 WP MM NOT_NAMED 1941-02-07 15:00:00 NR 6.70070 147.239 main 986 986 __________P___ -1 6.70070 147.239 4 11 283
1941038N07150 1941 9 WP MM NOT_NAMED 1941-02-07 18:00:00 NR 6.85515 146.683 main 1008 1008 __________P___ -1 6.85515 146.683 4 11 287
1941038N07150 1941 9 WP MM NOT_NAMED 1941-02-07 21:00:00 NR 7.03200 146.161 main 1020 1020 __________P___ -1 7.03200 146.161 4 10 289
1941038N07150 1941 9 WP MM NOT_NAMED 1941-02-08 00:00:00 NR 7.20000 145.700 main 1046 1046 __________O___ -1 7.20000 145.700 4 9 289
1941038N07150 1941 9 WP MM NOT_NAMED 1941-02-08 03:00:00 NR 7.30993 145.343 main 1063 1063 __________P___ -1 7.30993 145.343 4 7 288
1941038N07150 1941 9 WP MM NOT_NAMED 1941-02-08 06:00:00 NR 7.40701 145.047 main 1079 1079 __________P___ -1 7.40701 145.047 4 6 289
1941038N07150 1941 9 WP MM NOT_NAMED 1941-02-08 09:00:00 NR 7.50061 144.778 main 1094 1094 __________P___ -1 7.50061 144.778 4 6 290
1941038N07150 1941 9 WP MM NOT_NAMED 1941-02-08 12:00:00 NR 7.60000 144.500 main 1111 1111 __________O___ -1 7.60000 144.500 4 7 291
1941038N07150 1941 9 WP MM NOT_NAMED 1941-02-08 15:00:00 NR 7.74229 144.136 main 1132 1132 __________P___ -1 7.74229 144.136 4 8 291
1941038N07150 1941 9 WP MM NOT_NAMED 1941-02-08 18:00:00 NR 7.88767 143.763 main 1162 1162 __________P___ -1 7.88767 143.763 4 8 291
1941038N07150 1941 9 WP MM NOT_NAMED 1941-02-08 21:00:00 NR 8.01419 143.408 main 1186 1186 __________P___ -1 8.01419 143.408 4 7 288
1941038N07150 1941 9 WP MM NOT_NAMED 1941-02-09 00:00:00 NR 8.10000 143.100 main 1207 1203 __________O___ -1 8.10000 143.100 4 5 281
1941038N07150 1941 9 WP MM NOT_NAMED 1941-02-09 03:00:00 NR 8.12203 142.866 main 1203 1194 __________P___ -1 8.12203 142.866 4 4 270
1941038N07150 1941 9 WP MM NOT_NAMED 1941-02-09 06:00:00 NR 8.10232 142.682 main 1194 1186 __________P___ -1 8.10232 142.682 4 3 259
1941038N07150 1941 9 WP MM NOT_NAMED 1941-02-09 09:00:00 NR 8.05646 142.532 main 1186 1172 __________P___ -1 8.05646 142.532 4 3 250
1941038N07150 1941 9 WP MM NOT_NAMED 1941-02-09 12:00:00 NR 8.00000 142.400 main 1172 1168 __________O___ -1 8.00000 142.400 4 3 252
1941038N07150 1941 9 WP MM NOT_NAMED 1941-02-09 15:00:00 NR 7.97338 142.269 main 1168 1153 __________P___ -1 7.97338 142.269 4 3 256
1941038N07150 1941 9 WP MM NOT_NAMED 1941-02-09 18:00:00 NR 7.93742 142.150 main 1153 1145 __________P___ -1 7.93742 142.150 4 3 249
1941038N07150 1941 9 WP MM NOT_NAMED 1941-02-09 21:00:00 NR 7.88276 142.031 main 1145 1130 __________P___ -1 7.88276 142.031 4 3 241
1941038N07150 1941 9 WP MM NOT_NAMED 1941-02-10 00:00:00 NR 7.80000 141.900 main 1130 1116 __________O___ -1 7.80000 141.900 7 4 235
1941038N07150 1941 9 WP MM NOT_NAMED 1941-02-10 03:00:00 NR 7.67874 141.743 main 1112 1087 __________P___ -1 7.67874 141.743 7 4 230
1941038N07150 1941 9 WP MM NOT_NAMED 1941-02-10 06:00:00 NR 7.52998 141.572 main 1087 1069 __________P___ -1 7.52998 141.572 7 5 228
1941038N07150 1941 9 WP MM NOT_NAMED 1941-02-10 09:00:00 NR 7.36623 141.390 main 1069 1040 __________P___ -1 7.36623 141.390 7 5 228
1941038N07150 1941 9 WP MM NOT_NAMED 1941-02-10 12:00:00 NR 7.20000 141.200 main 1040 1016 __________O___ -1 7.20000 141.200 7 5 226
1941038N07150 1941 9 WP MM NOT_NAMED 1941-02-10 15:00:00 NR 7.03766 141.044 main 1012 998 __________P___ -1 7.03766 141.044 7 5 225
1941038N07150 1941 9 WP MM NOT_NAMED 1941-02-10 18:00:00 NR 6.87725 140.875 main 998 970 __________P___ -1 6.87725 140.875 7 5 230
1941038N07150 1941 9 WP MM NOT_NAMED 1941-02-10 21:00:00 NR 6.72823 140.669 main 970 950 __________P___ -1 6.72823 140.669 7 5 240
1941038N07150 1941 9 WP MM NOT_NAMED 1941-02-11 00:00:00 NR 6.60000 140.400 main 950 931 __________O___ -1 6.60000 140.400 7 7 250
1941038N07150 1941 9 WP MM NOT_NAMED 1941-02-11 03:00:00 NR 6.49544 140.036 main 929 905 __________P___ -1 6.49544 140.036 7 8 257
1941038N07150 1941 9 WP MM NOT_NAMED 1941-02-11 06:00:00 NR 6.41267 139.610 main 905 886 __________P___ -1 6.41267 139.610 7 9 260
1941038N07150 1941 9 WP MM NOT_NAMED 1941-02-11 09:00:00 NR 6.34854 139.154 main 876 854 __________P___ -1 6.34854 139.154 7 9 263
1941038N07150 1941 9 WP MM NOT_NAMED 1941-02-11 12:00:00 NR 6.30000 138.700 main 854 839 __________O___ -1 6.30000 138.700 7 8 264
1941038N07150 1941 9 WP MM NOT_NAMED 1941-02-11 15:00:00 NR 6.26041 138.309 main 839 814 __________P___ -1 6.26041 138.309 7 8 265
1941038N07150 1941 9 WP MM NOT_NAMED 1941-02-11 18:00:00 NR 6.23470 137.923 main 814 801 __________P___ -1 6.23470 137.923 7 8 267
1941038N07150 1941 9 WP MM NOT_NAMED 1941-02-11 21:00:00 NR 6.21664 137.525 main 801 790 __________P___ -1 6.21664 137.525 7 8 268
1941038N07150 1941 9 WP MM NOT_NAMED 1941-02-12 00:00:00 NR 6.20000 137.100 main 790 782 __________O___ -1 6.20000 137.100 7 9 268
1941038N07150 1941 9 WP MM NOT_NAMED 1941-02-12 03:00:00 NR 6.18720 136.625 main 781 776 __________P___ -1 6.18720 136.625 7 10 268
1941038N07150 1941 9 WP MM NOT_NAMED 1941-02-12 06:00:00 NR 6.17251 136.123 main 775 762 __________P___ -1 6.17251 136.123 7 10 268
1941038N07150 1941 9 WP MM NOT_NAMED 1941-02-12 09:00:00 NR 6.14655 135.609 main 762 762 __________P___ -1 6.14655 135.609 7 10 266
1941038N07150 1941 9 WP MM NOT_NAMED 1941-02-12 12:00:00 NR 6.10000 135.100 main 763 738 __________O___ -1 6.10000 135.100 7 10 263
1941038N07150 1941 9 WP MM NOT_NAMED 1941-02-12 15:00:00 NR 6.02634 134.607 main 738 718 __________P___ -1 6.02634 134.607 7 10 260
1941038N07150 1941 9 WP MM NOT_NAMED 1941-02-12 18:00:00 NR 5.93020 134.130 main 710 666 __________P___ -1 5.93020 134.130 7 10 258
1941038N07150 1941 9 WP MM NOT_NAMED 1941-02-12 21:00:00 NR 5.81896 133.662 main 666 614 __________P___ -1 5.81896 133.662 7 10 256
1941038N07150 1941 9 WP MM NOT_NAMED 1941-02-13 00:00:00 NR 5.70000 133.200 main 614 __________O___ -1 5.70000 133.200 7 10 255

デジタル台風データ・検索

IBTrACS Databaseについて

本データベースは、米国NOAAが公開する1842年以降の世界の熱帯低気圧のベストトラックデータアーカイブInternational Best Track Archive for Climate Stewardship (IBTrACS)を、ウェブで閲覧しやすい形式に変換したものです。

最終更新日:2021-10-08